Prairie City, Illinois
Current Conditions -  °F | °C
As of 12:55 PM on Tuesday 27 Jan 2015 (Local Time) from KMQB Reporting Station
Overcast Overcast  
Wind Chill: 24°   Ceiling: 1200
Heat Index: 31°   Visibility: 7mi
Dew Point: 28°   Wind: 8mph
Humidity: 87%   Direction: 50°NE
Pressure: 30.21"   Gusts: NA
Location:  40.62°N, 90.46°W
Report Text: KMQB 271855Z AUTO 05007KT 7SM OVC012 00/M02 A3021 RMK AO2 T10051024
Loading
Personal Weather Stations






























Interactive Weather Map New forecast layout! Learn more

10-Day Weather Forecast

Advertisements
Track Severe Weather on mobile